Airfield :
LOGIN :

Register | Disclaimer

   EN    FR    IT 

 










Legend :    VFR   Marginal VFR   IFR   Intensive IFR   Very Intensive IFR
Visi :
Ceiling :
>= 8 km
>= 3000ft
5 to 8 km
1000 to 3000 ft
1500m to 5 km
500 to 1000 ft
800 to 1500m
200 to 500 ft
< 800m
< 200 ft
Symbols :   Thunderstorms  Fog  Heavy snow  Heavy precipitations  Wind > 20 kt
SIGMETs :     Misc.  Thunderstorms  Icing  Turbulence  Mountain Waves  Volcanic Ashes







- Airport Elevation : 255 ft


ENGC - Gullfaks C oil platform

CURRENT METAR :
  • 200050Z 25036KT 9999 FEW015 SCT050 BKN090 11/08 Q0987 W11/S7

EXPIRED METARs :
  • 192350Z 25042KT 9999 BKN023 11/08 Q0986 W11/S6
  • 192250Z 25053KT 9999 BKN020 11/06 Q0984 W11/S6

AMD TAF ENGC
Valid from the 20 at 00:00 until the 21 at 00:00 UTC


2000/2024 24045KT 9999 FEW010 BKN020
TEMPO 2000/2018 3000 SHRA BKN008 SCT015CB
PROB30
TEMPO 2014/2016 TSGS
BECMG 2014/2016 26035KT
BECMG 2019/2022 25025KT
BECMG 2022/2024 24015KT
No reported NOTAMs for that airfield.
4 SIGMETs reported for the Norway FIR (ENOR) :
 
Severe turbulence
ENSV SIGMET B04 VALID 192300/200300 ENVV
ENOR NORWAY FIR SEV TURB FCST WI N6200 E00510 - N6200 E00730 - N6000 E00730 - N6000 E00600 - N6200 E00510 SFC/FL180 STNR NC=
Severe mountain waves
ENOS SIGMET A01 VALID 200001/200400 ENMI
ENOR NORWAY FIR SEV MTW FCST WI N6045 E00730 - N6200 E00730 - N6200 E01000 - N6130 E01000 - N6045 E00730 SFC/FL200 STNR WKN=
Severe turbulence
ENBD SIGMET D01 VALID 192300/200300 ENVN
ENOR NORWAY FIR SEV TURB FCST N OF N6500 AND S OF N6800 AND E OF E01200 SFC/FL080 MOV N 20KT NC=
Severe mountain waves
ENBD SIGMET C02 VALID 192200/200200 ENVV
ENOR NORWAY FIR SEV MTW FCST WI N6200 E00500 - N6345 E00850 - N6345 E01220 - N6200 E01212 - N6200 E00500 SFC/FL240 MOV NE 15KT NC=



MET'MAP, your aeronautical weather chart ! - Copyright ORBIFLY December 2007 - Disclaimer

ORBIFLY MET'MAP TEAM :

Programming & Development : Alexandra Zaïnal
Concept & Development : Baudouin d'Aumeries
Co-Development & Prog : Marc-Olivier Méhu
Technical & hardware support : Manuel Goepfert

Contact : metmap@orbifly.com




SOURCES & CREDITS :

   NOAA